Time;durP1;ratioP1;P1;durP2;ratioP2;P2;SDS_P1;SDS_P2;PMS_P1;PMS_P2;Temp;Humidity;BMP_temperature;BMP_pressure;BME280_temperature;BME280_humidity;BME280_pressure;Samples;Min_cycle;Max_cycle;Signal;HPM_P1;HPM_P2
2023/04/05 00:01:25;;;;;;;3.23;2.00;;;-1.40;23.90;;;;;;5031985;28;20956;-51
2023/04/05 00:03:53;;;;;;;5.00;2.30;;;-1.40;32.80;;;;;;5031533;28;20534;-51
2023/04/05 00:06:20;;;;;;;1.90;1.80;;;-1.50;36.80;;;;;;5037120;28;20470;-51
2023/04/05 00:08:48;;;;;;;2.10;2.00;;;-1.50;34.70;;;;;;5031491;28;20526;-50
2023/04/05 00:11:15;;;;;;;3.90;2.13;;;-1.60;31.40;;;;;;5029894;28;20477;-50
2023/04/05 00:13:42;;;;;;;4.37;3.00;;;-1.60;95.70;;;;;;5033324;28;20464;-50
2023/04/05 00:16:08;;;;;;;5.23;2.13;;;-1.70;25.40;;;;;;5036299;28;21082;-50
2023/04/05 00:18:37;;;;;;;2.93;2.70;;;-1.50;99.90;;;;;;5037633;28;20585;-50
2023/04/05 00:21:05;;;;;;;2.20;2.10;;;-1.50;96.50;;;;;;5030750;28;20469;-51
2023/04/05 00:23:37;;;;;;;2.27;2.13;;;-1.50;99.90;;;;;;5030969;28;20477;-51
2023/04/05 00:26:03;;;;;;;2.90;2.57;;;-1.50;99.90;;;;;;5030396;28;20458;-51
2023/04/05 00:28:30;;;;;;;3.57;2.60;;;-1.70;99.90;;;;;;5028481;28;20536;-51
2023/04/05 00:30:56;;;;;;;2.60;2.50;;;-1.60;99.90;;;;;;5036199;28;20582;-50
2023/04/05 00:33:23;;;;;;;3.13;2.93;;;-1.60;99.90;;;;;;5031181;28;20519;-50
2023/04/05 00:35:50;;;;;;;3.70;2.70;;;-1.70;99.90;;;;;;5029049;28;20484;-51
2023/04/05 00:38:17;;;;;;;4.30;3.70;;;-1.60;99.90;;;;;;5030331;28;20506;-50
2023/04/05 00:40:44;;;;;;;2.13;2.03;;;-1.60;99.90;;;;;;5029870;28;20468;-50
2023/04/05 00:43:11;;;;;;;4.00;3.00;;;-1.70;99.90;;;;;;5030062;28;20919;-51
2023/04/05 00:45:37;;;;;;;3.23;2.83;;;-1.70;99.90;;;;;;5030544;28;20539;-50
2023/04/05 00:48:05;;;;;;;3.93;2.80;;;-1.70;99.90;;;;;;5032142;28;20471;-50
2023/04/05 00:50:33;;;;;;;3.60;3.00;;;-1.70;99.90;;;;;;5037480;28;20555;-51
2023/04/05 00:53:00;;;;;;;2.93;2.63;;;-1.70;99.90;;;;;;5030112;28;20474;-51
2023/04/05 00:55:28;;;;;;;3.20;2.47;;;-1.70;99.90;;;;;;5034404;28;20995;-50
2023/04/05 00:57:55;;;;;;;5.00;2.43;;;-1.80;99.90;;;;;;5035564;28;20462;-52
2023/04/05 01:00:23;;;;;;;3.30;3.10;;;-1.80;99.90;;;;;;5030268;28;20556;-51
2023/04/05 01:03:03;;;;;;;3.60;3.30;;;-1.70;99.90;;;;;;5027162;28;20945;-50
2023/04/05 01:05:37;;;;;;;2.93;2.83;;;-1.70;99.90;;;;;;5038670;28;20460;-51
2023/04/05 01:08:12;;;;;;;3.67;3.30;;;-1.80;99.90;;;;;;5026605;28;20502;-51
2023/04/05 01:10:44;;;;;;;3.00;2.80;;;-1.80;99.90;;;;;;5029201;28;20991;-51
2023/04/05 01:13:11;;;;;;;3.40;3.07;;;-1.90;99.90;;;;;;5032658;28;20507;-52
2023/04/05 01:15:37;;;;;;;4.53;3.20;;;-1.80;99.90;;;;;;5031276;28;20488;-52
2023/04/05 01:18:04;;;;;;;3.80;3.50;;;-1.80;99.90;;;;;;5029952;28;20880;-51
2023/04/05 01:20:37;;;;;;;4.20;3.80;;;-1.90;99.90;;;;;;5028004;28;20469;-51
2023/04/05 01:23:23;;;;;;;4.77;3.70;;;-1.90;99.90;;;;;;5025661;28;20886;-52
2023/04/05 01:26:09;;;;;;;5.50;3.97;;;-1.90;99.90;;;;;;5029980;28;20504;-51
2023/04/05 01:28:56;;;;;;;4.30;3.90;;;-1.90;99.90;;;;;;5032082;28;20489;-51
2023/04/05 01:31:29;;;;;;;4.50;4.13;;;-2.00;99.90;;;;;;5028850;28;20464;-51
2023/04/05 01:34:00;;;;;;;4.67;4.27;;;-1.90;99.90;;;;;;5024679;28;20465;-51
2023/04/05 01:36:31;;;;;;;5.77;5.27;;;-2.00;99.90;;;;;;5027114;28;20507;-51
2023/04/05 01:39:00;;;;;;;5.03;4.63;;;-2.10;99.90;;;;;;5026468;28;20471;-51
2023/04/05 01:41:27;;;;;;;4.83;4.40;;;-2.10;99.90;;;;;;5029579;28;20465;-51
2023/04/05 01:43:53;;;;;;;5.23;4.83;;;-2.10;99.90;;;;;;5026559;28;20536;-52
2023/04/05 01:46:20;;;;;;;7.90;4.17;;;-2.10;99.90;;;;;;5036183;28;20455;-51
2023/04/05 01:48:48;;;;;;;5.30;4.50;;;-2.20;99.90;;;;;;5032534;28;21007;-51
2023/04/05 01:51:15;;;;;;;6.10;5.40;;;-2.20;99.90;;;;;;5034423;28;20557;-52
2023/04/05 01:53:41;;;;;;;5.10;4.20;;;-2.10;99.90;;;;;;5029475;28;20469;-50
2023/04/05 01:56:08;;;;;;;5.80;5.30;;;-2.00;99.90;;;;;;5030085;28;20532;-52
2023/04/05 01:58:34;;;;;;;4.80;4.40;;;-2.10;99.90;;;;;;5034196;28;20483;-51
2023/04/05 02:01:01;;;;;;;5.73;4.87;;;-2.10;99.90;;;;;;5028522;28;20484;-51
2023/04/05 02:03:27;;;;;;;8.33;5.43;;;-2.20;99.90;;;;;;5035299;28;20463;-51
2023/04/05 02:05:55;;;;;;;8.40;5.90;;;-2.10;99.90;;;;;;5029568;28;20462;-52
2023/04/05 02:08:22;;;;;;;5.30;4.90;;;-2.10;99.90;;;;;;5036054;28;20485;-51
2023/04/05 02:10:48;;;;;;;5.73;5.23;;;-2.10;99.90;;;;;;5030287;28;20461;-52
2023/04/05 02:13:15;;;;;;;7.57;5.27;;;-2.10;99.90;;;;;;5028339;28;20515;-52
2023/04/05 02:15:48;;;;;;;5.20;4.80;;;-2.10;99.90;;;;;;5034330;28;20508;-52
2023/04/05 02:18:14;;;;;;;5.10;3.90;;;-2.20;99.90;;;;;;5041025;28;21036;-52
2023/04/05 02:20:41;;;;;;;6.03;4.53;;;-2.10;99.90;;;;;;5033813;28;20825;-52
2023/04/05 02:23:09;;;;;;;5.23;4.53;;;-2.10;99.90;;;;;;5033973;28;20459;-52
2023/04/05 02:25:36;;;;;;;4.90;4.37;;;-2.00;99.90;;;;;;5034242;28;20450;-51
2023/04/05 02:28:02;;;;;;;4.60;4.20;;;-2.00;99.90;;;;;;5037213;28;20463;-52
2023/04/05 02:30:29;;;;;;;4.90;4.50;;;-1.90;99.90;;;;;;5041648;28;20472;-51
2023/04/05 02:32:55;;;;;;;4.50;3.90;;;-1.90;99.90;;;;;;5033842;28;20521;-51
2023/04/05 02:35:22;;;;;;;4.90;4.50;;;-1.90;99.90;;;;;;5032991;28;20552;-52
2023/04/05 02:37:49;;;;;;;5.13;4.63;;;-1.90;99.90;;;;;;5039934;28;20460;-51
2023/04/05 02:40:16;;;;;;;5.37;4.40;;;-1.80;99.90;;;;;;5032479;28;20459;-52
2023/04/05 02:42:43;;;;;;;4.77;4.27;;;-1.80;99.90;;;;;;5028829;28;20842;-51
2023/04/05 02:45:10;;;;;;;4.70;4.23;;;-1.80;99.90;;;;;;5031734;28;20523;-51
2023/04/05 02:47:37;;;;;;;6.13;5.13;;;-1.70;99.90;;;;;;5031903;28;20461;-52
2023/04/05 02:50:04;;;;;;;6.00;5.03;;;-1.70;99.90;;;;;;5030960;28;20535;-52
2023/04/05 02:52:33;;;;;;;4.93;4.50;;;-1.60;99.90;;;;;;5032691;28;20465;-52
2023/04/05 02:54:59;;;;;;;9.53;4.90;;;-1.60;99.90;;;;;;5035558;28;20491;-52
2023/04/05 02:57:27;;;;;;;12.63;5.47;;;-1.60;99.90;;;;;;5025872;28;20512;-52
2023/04/05 02:59:54;;;;;;;8.27;5.10;;;-1.50;99.90;;;;;;5025476;28;20476;-51
2023/04/05 03:02:20;;;;;;;6.53;5.50;;;-1.50;99.90;;;;;;5033411;28;20459;-51
2023/04/05 03:04:47;;;;;;;6.87;5.60;;;-1.40;99.90;;;;;;5036772;28;20456;-51
2023/04/05 03:07:17;;;;;;;7.20;5.50;;;-1.40;99.90;;;;;;5030524;28;20455;-51
2023/04/05 03:09:45;;;;;;;6.40;5.80;;;-1.40;99.90;;;;;;5031686;28;20480;-51
2023/04/05 03:12:12;;;;;;;8.47;5.40;;;-1.40;99.90;;;;;;5039747;28;20465;-52
2023/04/05 03:14:40;;;;;;;6.67;5.93;;;-1.40;99.90;;;;;;5039414;28;20810;-51
2023/04/05 03:17:06;;;;;;;6.17;5.53;;;-1.40;99.90;;;;;;5031819;28;20534;-50
2023/04/05 03:19:34;;;;;;;5.73;5.23;;;-1.50;99.90;;;;;;5035469;28;20893;-51
2023/04/05 03:22:01;;;;;;;7.83;5.27;;;-1.50;99.90;;;;;;5032142;28;20864;-52
2023/04/05 03:24:27;;;;;;;6.93;5.43;;;-1.50;99.90;;;;;;5032347;28;20466;-51
2023/04/05 03:26:54;;;;;;;7.70;5.70;;;-1.60;99.90;;;;;;5029838;28;21051;-52
2023/04/05 03:29:21;;;;;;;7.90;5.60;;;-1.60;99.90;;;;;;5033853;28;20516;-52
2023/04/05 03:31:49;;;;;;;6.37;5.77;;;-1.60;99.90;;;;;;5038305;28;20519;-52
2023/04/05 03:34:16;;;;;;;5.33;4.90;;;-1.60;94.60;;;;;;5038501;28;20944;-51
2023/04/05 03:36:42;;;;;;;9.57;6.20;;;-1.60;93.60;;;;;;5034708;28;20483;-52
2023/04/05 03:39:09;;;;;;;6.93;5.90;;;-1.50;99.90;;;;;;5039045;28;20477;-52
2023/04/05 03:41:36;;;;;;;5.83;5.20;;;-1.50;99.90;;;;;;5028199;28;20467;-51
2023/04/05 03:44:02;;;;;;;6.70;5.90;;;-1.60;99.90;;;;;;5025245;28;20520;-52
2023/04/05 03:46:29;;;;;;;6.10;5.27;;;-1.50;99.90;;;;;;5030159;28;20538;-52
2023/04/05 03:48:57;;;;;;;7.67;5.50;;;-1.50;99.90;;;;;;5029666;28;20484;-51
2023/04/05 03:51:24;;;;;;;8.43;5.53;;;-1.50;99.90;;;;;;5035274;28;20880;-52
2023/04/05 03:53:51;;;;;;;6.60;5.90;;;-1.50;99.90;;;;;;5032592;28;20456;-51
2023/04/05 03:56:18;;;;;;;14.90;6.10;;;-1.40;99.90;;;;;;5032723;28;20478;-51
2023/04/05 03:58:45;;;;;;;6.67;5.90;;;-1.40;99.90;;;;;;5029923;28;20552;-52
2023/04/05 04:01:12;;;;;;;5.47;4.97;;;-1.40;99.90;;;;;;5031649;28;20492;-51
2023/04/05 04:03:39;;;;;;;8.13;6.07;;;-1.30;99.90;;;;;;5029754;28;20464;-51
2023/04/05 04:06:07;;;;;;;6.77;5.23;;;-1.40;99.90;;;;;;5033136;28;20510;-51
2023/04/05 04:08:34;;;;;;;7.00;5.87;;;-1.30;99.90;;;;;;5029405;28;20479;-51
2023/04/05 04:11:01;;;;;;;9.83;6.20;;;-1.30;99.90;;;;;;5041925;28;20801;-52
2023/04/05 04:13:27;;;;;;;6.43;5.50;;;-1.20;99.90;;;;;;5030962;28;21029;-52
2023/04/05 04:15:54;;;;;;;6.57;5.83;;;-1.30;99.90;;;;;;5031249;28;20521;-52
2023/04/05 04:18:21;;;;;;;8.30;5.77;;;-1.30;99.90;;;;;;5031068;28;20488;-52
2023/04/05 04:20:47;;;;;;;6.90;6.00;;;-1.20;99.90;;;;;;5031711;28;20461;-52
2023/04/05 04:23:18;;;;;;;9.40;7.13;;;-1.20;99.90;;;;;;5034540;28;20464;-52
2023/04/05 04:25:45;;;;;;;8.47;6.20;;;-1.10;99.90;;;;;;5036724;28;20499;-51
2023/04/05 04:28:12;;;;;;;9.23;6.93;;;-1.20;99.90;;;;;;5030390;28;21015;-52
2023/04/05 04:30:42;;;;;;;8.90;6.03;;;-1.10;99.90;;;;;;5029578;28;20781;-51
2023/04/05 04:33:08;;;;;;;9.97;5.90;;;-1.00;99.90;;;;;;5032272;28;20476;-52
2023/04/05 04:35:37;;;;;;;6.30;5.27;;;-1.00;99.90;;;;;;5029736;28;20468;-52
2023/04/05 04:38:06;;;;;;;8.27;6.03;;;-1.10;99.90;;;;;;5030217;28;20484;-52
2023/04/05 04:40:37;;;;;;;6.73;5.60;;;-1.00;99.90;;;;;;5029381;28;20554;-51
2023/04/05 04:43:04;;;;;;;7.70;5.43;;;-0.90;99.90;;;;;;5030644;28;21067;-52
2023/04/05 04:45:33;;;;;;;8.50;5.77;;;-0.90;99.90;;;;;;5026923;28;20490;-51
2023/04/05 04:48:03;;;;;;;5.93;5.50;;;-1.00;99.90;;;;;;5038529;28;20553;-51
2023/04/05 04:50:30;;;;;;;6.87;5.20;;;-0.90;99.90;;;;;;5030289;28;20457;-52
2023/04/05 04:52:58;;;;;;;8.90;6.67;;;-0.90;99.90;;;;;;5030916;28;20464;-52
2023/04/05 04:55:26;;;;;;;6.10;5.47;;;-0.90;99.90;;;;;;5028784;28;20508;-52
2023/04/05 04:57:55;;;;;;;5.57;5.03;;;-0.90;99.90;;;;;;5032568;28;20487;-52
2023/04/05 05:00:23;;;;;;;4.73;4.40;;;-0.80;99.90;;;;;;5034340;28;20460;-52
2023/04/05 05:02:52;;;;;;;6.77;4.80;;;-0.80;99.90;;;;;;5031838;28;20958;-52
2023/04/05 05:05:21;;;;;;;5.93;5.40;;;-0.80;99.90;;;;;;5031860;28;20460;-52
2023/04/05 05:07:48;;;;;;;5.17;4.67;;;-0.80;99.90;;;;;;5039472;28;20972;-52
2023/04/05 05:10:15;;;;;;;6.73;5.37;;;-0.70;99.90;;;;;;5026927;28;21243;-51
2023/04/05 05:12:42;;;;;;;6.20;5.00;;;-0.70;99.90;;;;;;5028392;28;20970;-52
2023/04/05 05:15:11;;;;;;;6.83;4.63;;;-0.70;99.90;;;;;;5032037;28;20463;-52
2023/04/05 05:17:38;;;;;;;5.97;5.37;;;-0.60;99.90;;;;;;5033399;28;20480;-52
2023/04/05 05:20:09;;;;;;;5.03;4.60;;;-0.60;99.90;;;;;;5028671;28;20525;-52
2023/04/05 05:22:35;;;;;;;11.43;5.80;;;-0.50;99.90;;;;;;5024152;28;20507;-52
2023/04/05 05:25:02;;;;;;;7.10;4.90;;;-0.50;99.90;;;;;;5028700;28;20460;-52
2023/04/05 05:27:29;;;;;;;4.47;4.17;;;-0.40;99.90;;;;;;5030735;28;20461;-52
2023/04/05 05:29:55;;;;;;;5.00;4.50;;;-0.30;99.90;;;;;;5029818;28;20476;-52
2023/04/05 05:32:23;;;;;;;4.83;4.43;;;-0.30;99.90;;;;;;5029669;28;20467;-52
2023/04/05 05:34:50;;;;;;;7.10;5.33;;;-0.20;99.90;;;;;;5025856;28;20515;-52
2023/04/05 05:37:17;;;;;;;7.47;4.70;;;-0.10;99.90;;;;;;5035881;28;20485;-52
2023/04/05 05:39:44;;;;;;;7.43;5.37;;;-0.10;99.90;;;;;;5030167;28;20849;-52
2023/04/05 05:42:11;;;;;;;9.70;6.00;;;0.00;99.90;;;;;;5027310;28;20468;-55
2023/04/05 05:44:38;;;;;;;17.90;5.40;;;0.00;99.90;;;;;;5026046;28;21011;-52
2023/04/05 05:47:04;;;;;;;11.43;4.43;;;0.00;99.90;;;;;;5026429;28;20470;-53
2023/04/05 05:49:32;;;;;;;11.00;6.10;;;0.10;99.90;;;;;;5034861;28;20533;-52
2023/04/05 05:51:59;;;;;;;7.57;5.30;;;0.20;99.90;;;;;;5033261;28;20530;-50
2023/04/05 05:54:26;;;;;;;16.83;4.83;;;0.30;99.90;;;;;;5033182;28;20825;-50
2023/04/05 05:56:52;;;;;;;4.83;4.00;;;0.30;99.90;;;;;;5028972;28;21007;-51
2023/04/05 05:59:19;;;;;;;8.47;5.10;;;0.50;99.90;;;;;;5030472;28;20488;-51
2023/04/05 06:01:46;;;;;;;8.23;4.93;;;0.50;99.90;;;;;;5031419;28;20465;-50
2023/04/05 06:04:13;;;;;;;5.73;4.77;;;0.40;99.90;;;;;;5029520;28;20592;-51
2023/04/05 06:06:42;;;;;;;11.40;5.27;;;0.70;99.90;;;;;;5030649;28;20523;-51
2023/04/05 06:09:09;;;;;;;8.40;5.17;;;0.70;99.90;;;;;;5033537;28;20486;-51
2023/04/05 06:11:36;;;;;;;9.30;6.10;;;0.80;99.90;;;;;;5027845;28;20463;-52
2023/04/05 06:14:02;;;;;;;11.40;8.13;;;0.90;99.90;;;;;;5033975;28;20511;-51
2023/04/05 06:16:29;;;;;;;14.50;6.60;;;1.00;99.90;;;;;;5033773;28;20461;-51
2023/04/05 06:18:56;;;;;;;11.90;8.03;;;0.90;99.90;;;;;;5033191;28;21034;-52
2023/04/05 06:21:23;;;;;;;7.50;5.60;;;1.00;99.90;;;;;;5028769;28;20473;-52
2023/04/05 06:23:51;;;;;;;8.90;4.83;;;1.10;99.90;;;;;;5025635;28;21018;-52
2023/04/05 06:26:19;;;;;;;9.60;4.90;;;1.30;99.90;;;;;;5033270;28;20538;-52
2023/04/05 06:28:46;;;;;;;6.50;3.90;;;1.30;21.60;;;;;;5033458;28;20467;-53
2023/04/05 06:31:14;;;;;;;4.63;4.23;;;1.40;85.50;;;;;;5027981;28;20541;-52
2023/04/05 06:33:41;;;;;;;19.77;5.17;;;1.50;29.20;;;;;;5031944;28;20507;-52
2023/04/05 06:36:07;;;;;;;8.27;3.90;;;1.50;38.60;;;;;;5031484;28;20458;-52
2023/04/05 06:38:35;;;;;;;4.70;3.67;;;1.50;42.90;;;;;;5028585;28;20546;-52
2023/04/05 06:41:03;;;;;;;4.33;3.93;;;1.70;59.70;;;;;;5034353;28;20485;-52
2023/04/05 06:43:30;;;;;;;10.10;4.00;;;1.80;62.70;;;;;;5032948;28;20464;-52
2023/04/05 06:45:58;;;;;;;5.93;4.00;;;1.70;67.60;;;;;;5032489;28;20466;-52
2023/04/05 06:48:24;;;;;;;9.80;3.77;;;1.80;73.10;;;;;;5032171;28;20562;-52
2023/04/05 06:50:56;;;;;;;6.73;4.60;;;1.90;71.50;;;;;;5031367;28;20487;-52
2023/04/05 06:53:25;;;;;;;5.67;3.73;;;2.00;84.10;;;;;;5031455;28;20468;-52
2023/04/05 06:55:52;;;;;;;4.97;3.57;;;2.10;85.60;;;;;;5028719;28;20456;-52
2023/04/05 06:58:20;;;;;;;5.57;3.83;;;2.10;87.20;;;;;;5028804;28;21035;-52
2023/04/05 07:00:47;;;;;;;6.00;3.73;;;2.10;82.70;;;;;;5023952;28;20458;-52
2023/04/05 07:03:13;;;;;;;4.60;3.70;;;2.30;90.00;;;;;;5027820;28;20531;-50
2023/04/05 07:05:40;;;;;;;4.83;3.93;;;2.40;95.90;;;;;;5027414;28;20520;-51
2023/04/05 07:08:06;;;;;;;5.40;4.10;;;2.50;98.10;;;;;;5032151;28;20511;-50
2023/04/05 07:10:33;;;;;;;12.03;4.40;;;2.60;88.90;;;;;;5031761;28;20470;-52
2023/04/05 07:12:59;;;;;;;7.43;4.00;;;2.70;91.60;;;;;;5042443;28;20468;-51
2023/04/05 07:15:27;;;;;;;4.67;3.87;;;2.60;98.00;;;;;;5032924;28;20469;-52
2023/04/05 07:17:54;;;;;;;9.27;3.80;;;2.50;99.90;;;;;;5028657;28;20999;-52
2023/04/05 07:20:21;;;;;;;3.63;3.23;;;2.50;99.90;;;;;;5026913;28;20469;-52
2023/04/05 07:22:48;;;;;;;5.27;3.20;;;2.60;99.90;;;;;;5024096;28;20522;-51
2023/04/05 07:25:15;;;;;;;8.70;3.80;;;2.70;99.90;;;;;;5029465;28;20544;-51
2023/04/05 07:27:42;;;;;;;4.80;3.90;;;3.00;99.90;;;;;;5026399;28;20485;-51
2023/04/05 07:30:09;;;;;;;4.20;3.90;;;3.30;99.90;;;;;;5033008;28;20551;-53
2023/04/05 07:32:37;;;;;;;5.73;3.80;;;3.60;99.90;;;;;;5032759;28;20837;-53
2023/04/05 07:35:05;;;;;;;6.43;4.00;;;4.00;99.90;;;;;;5027888;28;20909;-53
2023/04/05 07:37:31;;;;;;;13.00;4.20;;;4.30;99.90;;;;;;5022850;28;20472;-53
2023/04/05 07:39:58;;;;;;;11.80;4.23;;;4.50;99.90;;;;;;5031077;28;20681;-53
2023/04/05 07:42:26;;;;;;;4.20;3.90;;;4.60;99.90;;;;;;5030836;28;20466;-53
2023/04/05 07:44:53;;;;;;;4.90;4.10;;;4.80;99.90;;;;;;5030730;28;20552;-53
2023/04/05 07:47:20;;;;;;;10.30;5.33;;;5.10;99.90;;;;;;5031552;28;20442;-53
2023/04/05 07:49:48;;;;;;;5.93;4.20;;;5.00;99.90;;;;;;5030291;28;21012;-53
2023/04/05 07:52:14;;;;;;;5.50;4.63;;;4.80;99.90;;;;;;5029932;28;20465;-53
2023/04/05 07:54:42;;;;;;;7.43;4.20;;;5.20;99.90;;;;;;5028902;28;20463;-53
2023/04/05 07:57:09;;;;;;;7.00;5.27;;;5.40;99.90;;;;;;5022278;28;20453;-53
2023/04/05 07:59:35;;;;;;;4.93;4.30;;;5.50;99.90;;;;;;5032523;28;20476;-52
2023/04/05 08:02:02;;;;;;;9.43;4.53;;;5.20;99.90;;;;;;5032040;28;20446;-52
2023/04/05 08:04:29;;;;;;;4.63;3.77;;;5.00;99.90;;;;;;5024395;28;20471;-52
2023/04/05 08:06:57;;;;;;;6.17;4.23;;;5.30;99.90;;;;;;5030495;28;20460;-52
2023/04/05 08:09:24;;;;;;;5.30;3.93;;;5.30;99.90;;;;;;5030613;28;20453;-53
2023/04/05 08:11:50;;;;;;;10.23;4.63;;;5.50;99.90;;;;;;5031619;28;20519;-52
2023/04/05 08:14:17;;;;;;;9.90;4.83;;;5.80;99.90;;;;;;5032356;28;20452;-53
2023/04/05 08:16:44;;;;;;;4.70;4.30;;;5.80;99.90;;;;;;5030900;28;20511;-53
2023/04/05 08:19:10;;;;;;;17.23;5.30;;;6.10;99.90;;;;;;5032267;28;20500;-53
2023/04/05 08:21:37;;;;;;;8.00;5.67;;;6.10;99.90;;;;;;5022104;28;20875;-53
2023/04/05 08:24:05;;;;;;;5.00;4.60;;;6.20;99.90;;;;;;5028744;28;20839;-52
2023/04/05 08:26:32;;;;;;;6.03;5.43;;;6.20;99.90;;;;;;5029671;28;20801;-53
2023/04/05 08:28:58;;;;;;;8.10;4.93;;;6.20;99.90;;;;;;5016629;28;20488;-53
2023/04/05 08:31:25;;;;;;;5.40;4.90;;;6.20;99.90;;;;;;5030927;28;20445;-52
2023/04/05 08:33:52;;;;;;;15.37;7.97;;;6.30;99.90;;;;;;5031017;28;20520;-53
2023/04/05 08:36:18;;;;;;;26.30;12.17;;;6.50;99.90;;;;;;5032437;28;20450;-52
2023/04/05 08:38:45;;;;;;;13.00;6.00;;;6.60;99.90;;;;;;5016825;28;20485;-53
2023/04/05 08:41:18;;;;;;;6.83;4.80;;;6.70;99.90;;;;;;5025048;28;20499;-51
2023/04/05 08:43:55;;;;;;;9.03;4.30;;;6.40;99.90;;;;;;5029553;28;20532;-51
2023/04/05 08:46:22;;;;;;;5.33;4.93;;;5.90;99.90;;;;;;5029707;28;20570;-51
2023/04/05 08:48:49;;;;;;;11.73;6.33;;;6.20;99.90;;;;;;5026479;28;20812;-51
2023/04/05 08:51:19;;;;;;;9.70;5.40;;;7.00;99.90;;;;;;5022237;28;20461;-51
2023/04/05 08:53:45;;;;;;;5.33;4.27;;;7.40;99.90;;;;;;5027479;28;20556;-50
2023/04/05 08:56:21;;;;;;;5.43;4.93;;;7.40;99.90;;;;;;5023661;28;20455;-51
2023/04/05 08:58:53;;;;;;;9.30;4.37;;;7.00;99.90;;;;;;5030963;28;20864;-51
2023/04/05 09:01:20;;;;;;;9.20;5.10;;;7.10;99.90;;;;;;5021306;28;20469;-51
2023/04/05 09:03:49;;;;;;;8.73;4.30;;;7.00;99.90;;;;;;5026617;28;20474;-51
2023/04/05 09:06:17;;;;;;;6.73;4.50;;;7.30;99.90;;;;;;5028600;28;20499;-51
2023/04/05 09:08:44;;;;;;;5.20;4.70;;;7.60;99.90;;;;;;5023247;28;20474;-51
2023/04/05 09:11:12;;;;;;;5.23;4.00;;;8.00;99.90;;;;;;5019559;28;20475;-51
2023/04/05 09:13:40;;;;;;;4.63;4.20;;;8.50;99.90;;;;;;5019065;28;20483;-50
2023/04/05 09:16:07;;;;;;;8.37;3.93;;;9.20;99.90;;;;;;5022742;28;21035;-51
2023/04/05 09:18:34;;;;;;;6.60;3.77;;;9.50;99.90;;;;;;5026369;28;20500;-52
2023/04/05 09:21:04;;;;;;;4.57;3.50;;;9.30;99.90;;;;;;5024744;28;20821;-50
2023/04/05 09:23:31;;;;;;;6.23;4.33;;;9.60;99.90;;;;;;5026504;28;20560;-50
2023/04/05 09:25:58;;;;;;;4.50;4.07;;;9.80;99.90;;;;;;5029790;28;20472;-51
2023/04/05 09:28:42;;;;;;;4.80;4.23;;;10.40;99.90;;;;;;5024325;28;20486;-50
2023/04/05 09:31:09;;;;;;;5.70;3.80;;;9.30;99.90;;;;;;5019624;28;20763;-51
2023/04/05 09:33:36;;;;;;;3.90;3.60;;;9.50;99.90;;;;;;5024371;28;20894;-51
2023/04/05 09:36:03;;;;;;;8.43;3.87;;;9.30;99.90;;;;;;5033037;28;20516;-51
2023/04/05 09:38:43;;;;;;;4.30;3.90;;;8.70;99.90;;;;;;5027147;28;20559;-51
2023/04/05 09:41:11;;;;;;;10.33;6.13;;;8.00;99.90;;;;;;5022392;28;20514;-51
2023/04/05 09:43:39;;;;;;;9.70;6.10;;;8.20;99.90;;;;;;5026737;28;20545;-51
2023/04/05 09:46:07;;;;;;;6.30;4.17;;;8.40;99.90;;;;;;5033685;28;20460;-50
2023/04/05 09:48:52;;;;;;;5.10;3.60;;;8.10;99.90;;;;;;5037024;28;20481;-50
2023/04/05 09:51:19;;;;;;;7.17;4.43;;;8.20;99.90;;;;;;5028591;28;20467;-51
2023/04/05 09:53:59;;;;;;;3.80;3.40;;;8.20;99.90;;;;;;5027893;28;20458;-50
2023/04/05 09:56:27;;;;;;;5.50;4.80;;;8.00;99.90;;;;;;5028489;28;20524;-51
2023/04/05 09:58:58;;;;;;;13.03;6.60;;;7.90;99.90;;;;;;5025939;28;20486;-51
2023/04/05 10:01:28;;;;;;;6.23;3.70;;;8.50;99.90;;;;;;5028253;28;20461;-51
2023/04/05 10:03:58;;;;;;;5.23;4.67;;;9.30;99.90;;;;;;5024724;28;20581;-51
2023/04/05 10:06:35;;;;;;;6.27;3.50;;;8.90;99.90;;;;;;5028272;28;20465;-53
2023/04/05 10:09:03;;;;;;;3.87;3.40;;;8.50;99.90;;;;;;5014961;28;20484;-51
2023/04/05 10:11:30;;;;;;;10.27;3.90;;;8.40;99.90;;;;;;5030461;28;20469;-52
2023/04/05 10:14:00;;;;;;;6.50;3.03;;;8.50;99.90;;;;;;5024663;28;20460;-53
2023/04/05 10:16:30;;;;;;;3.97;3.67;;;8.20;99.90;;;;;;5027091;28;21057;-53
2023/04/05 10:18:57;;;;;;;5.60;3.80;;;8.90;99.90;;;;;;5028545;28;20498;-53
2023/04/05 10:21:28;;;;;;;5.20;3.57;;;8.90;99.90;;;;;;5027386;28;20554;-53
2023/04/05 10:24:02;;;;;;;5.50;3.70;;;9.30;99.90;;;;;;5024630;28;20466;-53
2023/04/05 10:26:38;;;;;;;4.10;3.77;;;8.70;99.90;;;;;;5023044;28;20704;-53
2023/04/05 10:29:11;;;;;;;5.40;3.40;;;8.70;99.90;;;;;;5025687;28;20900;-53
2023/04/05 10:31:49;;;;;;;3.63;3.33;;;8.80;99.90;;;;;;5026352;28;20462;-53
2023/04/05 10:34:25;;;;;;;4.33;3.60;;;7.90;99.90;;;;;;5020530;28;20472;-53
2023/04/05 10:36:58;;;;;;;4.47;4.13;;;7.80;99.90;;;;;;5029140;28;20982;-52
2023/04/05 10:39:27;;;;;;;3.73;3.43;;;8.00;99.90;;;;;;5034473;28;20498;-52
2023/04/05 10:42:01;;;;;;;3.83;3.50;;;8.20;99.90;;;;;;5031227;28;20953;-52
2023/04/05 10:44:32;;;;;;;3.90;3.40;;;8.40;99.90;;;;;;5033342;28;20460;-52
2023/04/05 10:47:00;;;;;;;5.40;3.20;;;7.80;99.90;;;;;;5030833;28;20557;-53
2023/04/05 10:49:35;;;;;;;5.03;3.27;;;8.40;99.90;;;;;;5024730;28;20983;-52
2023/04/05 10:52:02;;;;;;;6.50;4.43;;;8.40;99.90;;;;;;5034977;28;21051;-52
2023/04/05 10:54:32;;;;;;;7.57;3.47;;;8.50;99.90;;;;;;5019132;28;20469;-51
2023/04/05 10:57:01;;;;;;;3.80;3.20;;;8.70;99.90;;;;;;5033412;28;20453;-52
2023/04/05 10:59:28;;;;;;;4.07;3.23;;;9.20;99.90;;;;;;5032921;28;20859;-52
2023/04/05 11:01:55;;;;;;;6.00;4.37;;;9.20;99.90;;;;;;5025845;28;20811;-51
2023/04/05 11:04:23;;;;;;;4.00;3.70;;;9.40;99.90;;;;;;5034142;28;20471;-52
2023/04/05 11:07:11;;;;;;;10.50;5.27;;;9.10;99.90;;;;;;5024836;28;20466;-50
2023/04/05 11:09:40;;;;;;;5.53;4.47;;;9.20;99.90;;;;;;5025922;28;20483;-51
2023/04/05 11:12:06;;;;;;;5.63;3.60;;;8.80;99.90;;;;;;5020819;28;20466;-51
2023/04/05 11:14:35;;;;;;;4.30;3.90;;;8.50;99.90;;;;;;5030751;28;20526;-52
2023/04/05 11:17:03;;;;;;;5.90;3.57;;;8.20;99.90;;;;;;5029509;28;20461;-51
2023/04/05 11:19:50;;;;;;;4.13;3.73;;;7.90;99.90;;;;;;5023005;28;20489;-52
2023/04/05 11:22:26;;;;;;;6.27;3.33;;;7.70;99.90;;;;;;5057377;22;20835;-52
2023/04/05 11:24:56;;;;;;;4.70;3.60;;;8.00;99.90;;;;;;5043129;28;20441;-52
2023/04/05 11:27:26;;;;;;;3.87;3.30;;;7.90;99.90;;;;;;5052786;28;20456;-51
2023/04/05 11:29:54;;;;;;;7.40;2.70;;;8.00;99.90;;;;;;5052560;28;20502;-52
2023/04/05 11:32:21;;;;;;;4.17;3.40;;;8.30;99.90;;;;;;5035805;28;20488;-51
2023/04/05 11:35:00;;;;;;;5.17;3.30;;;8.10;99.90;;;;;;5033690;28;20449;-52
2023/04/05 11:37:55;;;;;;;3.20;3.00;;;8.20;99.90;;;;;;5025854;28;20542;-52
2023/04/05 11:40:27;;;;;;;4.57;3.27;;;8.20;99.90;;;;;;5028063;28;20547;-51
2023/04/05 11:43:04;;;;;;;4.40;3.43;;;7.90;99.90;;;;;;5032807;28;20471;-51
2023/04/05 11:45:31;;;;;;;3.53;3.20;;;7.60;99.90;;;;;;5033336;28;20572;-51
2023/04/05 11:48:00;;;;;;;3.40;3.10;;;7.60;99.90;;;;;;5032576;28;20459;-52
2023/04/05 11:50:28;;;;;;;4.20;3.90;;;7.70;99.90;;;;;;5033160;28;20466;-51
2023/04/05 11:53:11;;;;;;;5.07;3.70;;;7.50;99.90;;;;;;5032429;28;20458;-51
2023/04/05 11:55:39;;;;;;;12.53;3.87;;;7.60;99.90;;;;;;5027484;28;20488;-51
2023/04/05 11:58:13;;;;;;;5.70;3.60;;;7.50;99.90;;;;;;5036835;28;20493;-52
2023/04/05 12:00:41;;;;;;;6.10;5.00;;;7.60;99.90;;;;;;5020380;28;20539;-52
2023/04/05 12:03:11;;;;;;;4.53;4.23;;;7.50;99.90;;;;;;5030899;28;20464;-53
2023/04/05 12:05:50;;;;;;;3.60;3.23;;;7.50;99.90;;;;;;5028842;28;20544;-51
2023/04/05 12:08:17;;;;;;;5.17;4.50;;;7.70;99.90;;;;;;5031526;28;20488;-52
2023/04/05 12:10:44;;;;;;;4.47;4.07;;;7.70;99.90;;;;;;5016999;28;20484;-52
2023/04/05 12:13:11;;;;;;;4.80;3.70;;;8.00;99.90;;;;;;5030005;28;20465;-51
2023/04/05 12:15:41;;;;;;;4.20;3.80;;;8.10;99.90;;;;;;5032938;28;20443;-52
2023/04/05 12:18:13;;;;;;;6.53;5.43;;;8.00;99.90;;;;;;5035941;28;20482;-55
2023/04/05 12:20:40;;;;;;;4.93;4.07;;;8.00;99.90;;;;;;5032085;28;20522;-56
2023/04/05 12:23:09;;;;;;;5.07;3.03;;;7.60;99.90;;;;;;5035350;28;20554;-55
2023/04/05 12:25:37;;;;;;;5.63;3.20;;;7.60;99.90;;;;;;5031905;28;20450;-55
2023/04/05 12:28:05;;;;;;;3.40;3.20;;;7.80;99.90;;;;;;5025948;28;20458;-56
2023/04/05 12:30:35;;;;;;;4.90;3.97;;;7.70;99.90;;;;;;5028419;28;20896;-56
2023/04/05 12:33:07;;;;;;;5.90;3.90;;;8.00;99.90;;;;;;5027090;28;20551;-56
2023/04/05 12:35:34;;;;;;;5.33;2.60;;;8.00;99.90;;;;;;5031203;28;20469;-54
2023/04/05 12:38:01;;;;;;;5.10;3.60;;;8.20;99.90;;;;;;5031421;28;20476;-57
2023/04/05 12:40:31;;;;;;;6.80;6.20;;;8.00;99.90;;;;;;5031686;28;20925;-56
2023/04/05 12:43:02;;;;;;;4.83;4.30;;;7.90;99.90;;;;;;5031558;28;20460;-57
2023/04/05 12:45:28;;;;;;;4.13;3.27;;;8.30;99.90;;;;;;5032728;28;20460;-57
2023/04/05 12:47:57;;;;;;;3.63;3.30;;;8.60;99.90;;;;;;5032372;28;20446;-57
2023/04/05 12:50:27;;;;;;;8.50;5.40;;;8.90;99.90;;;;;;5023997;28;20457;-56
2023/04/05 12:52:55;;;;;;;11.97;7.83;;;9.00;99.90;;;;;;5023018;28;20508;-57
2023/04/05 12:55:22;;;;;;;15.67;11.33;;;8.90;99.90;;;;;;5028874;28;20466;-57
2023/04/05 12:57:52;;;;;;;5.97;5.37;;;9.10;99.90;;;;;;5022747;28;20465;-56